Time;durP1;ratioP1;P1;durP2;ratioP2;P2;SDS_P1;SDS_P2;PMS_P1;PMS_P2;Temp;Humidity;BMP_temperature;BMP_pressure;BME280_temperature;BME280_humidity;BME280_pressure;Samples;Min_cycle;Max_cycle;Signal;HPM_P1;HPM_P2
2023/03/13 00:02:02;;;;;;;;;;;;;;;;;;4941318;28;19968;-88
2023/03/13 00:04:28;;;;;;;;;;;;;;;;;;4950110;28;20008;-90
2023/03/13 00:06:54;;;;;;;;;;;;;;;;;;4929528;29;19930;-88
2023/03/13 00:09:21;;;;;;;;;;;;;;;;;;4944818;28;19926;-89
2023/03/13 00:11:54;;;;;;;;;;;;;;;;;;4939418;29;20288;-89
2023/03/13 00:14:20;;;;;;;;;;;;;;;;;;4943000;28;19926;-89
2023/03/13 00:19:34;;;;;;;;;;;;;;;;;;4938650;29;19930;-90
2023/03/13 00:22:16;;;;;;;;;;;;;;;;;;4946310;29;19978;-89
2023/03/13 00:24:42;;;;;;;;;;;;;;;;;;4947144;29;19922;-89
2023/03/13 00:27:23;;;;;;;;;;;;;;;;;;4937580;29;19994;-90
2023/03/13 00:29:49;;;;;;;;;;;;;;;;;;4947711;29;19922;-89
2023/03/13 00:32:15;;;;;;;;;;;;;;;;;;4948986;29;19929;-91
2023/03/13 00:34:41;;;;;;;;;;;;;;;;;;4938402;29;19923;-91
2023/03/13 00:39:57;;;;;;;;;;;;;;;;;;4949589;29;20348;-90
2023/03/13 00:42:22;;;;;;;;;;;;;;;;;;4940780;29;19927;-90
2023/03/13 00:44:48;;;;;;;;;;;;;;;;;;4946947;29;19930;-91
2023/03/13 00:47:14;;;;;;;;;;;;;;;;;;4955208;29;19985;-91
2023/03/13 00:49:40;;;;;;;;;;;;;;;;;;4938492;29;19934;-90
2023/03/13 00:52:06;;;;;;;;;;;;;;;;;;4938924;29;19922;-89
2023/03/13 00:54:32;;;;;;;;;;;;;;;;;;4955224;29;20296;-90
2023/03/13 00:56:58;;;;;;;;;;;;;;;;;;4940673;29;19929;-90
2023/03/13 00:59:24;;;;;;;;;;;;;;;;;;4944002;28;20344;-90
2023/03/13 01:01:50;;;;;;;;;;;;;;;;;;4943965;28;19930;-91
2023/03/13 01:04:15;;;;;;;;;;;;;;;;;;4940068;28;19957;-89
2023/03/13 01:06:41;;;;;;;;;;;;;;;;;;4949759;28;19926;-89
2023/03/13 01:09:07;;;;;;;;;;;;;;;;;;4958902;28;19922;-91
2023/03/13 01:11:33;;;;;;;;;;;;;;;;;;4942219;28;19922;-89
2023/03/13 01:13:59;;;;;;;;;;;;;;;;;;4950519;28;20284;-88
2023/03/13 01:16:25;;;;;;;;;;;;;;;;;;4948631;28;19976;-90
2023/03/13 01:18:51;;;;;;;;;;;;;;;;;;4965874;28;19922;-89
2023/03/13 01:21:18;;;;;;;;;;;;;;;;;;4942167;28;19930;-89
2023/03/13 01:23:44;;;;;;;;;;;;;;;;;;4947987;29;19930;-89
2023/03/13 01:26:10;;;;;;;;;;;;;;;;;;4946991;28;19926;-89
2023/03/13 01:28:40;;;;;;;;;;;;;;;;;;4948369;28;19922;-89
2023/03/13 01:31:06;;;;;;;;;;;;;;;;;;4956011;28;19923;-89
2023/03/13 01:33:32;;;;;;;;;;;;;;;;;;4948321;28;19974;-89
2023/03/13 01:35:58;;;;;;;;;;;;;;;;;;4946395;29;19922;-90
2023/03/13 01:38:24;;;;;;;;;;;;;;;;;;4962192;28;19930;-89
2023/03/13 01:40:50;;;;;;;;;;;;;;;;;;4937685;29;20467;-89
2023/03/13 01:43:15;;;;;;;;;;;;;;;;;;4945864;28;19977;-89
2023/03/13 01:45:41;;;;;;;;;;;;;;;;;;4941560;28;19922;-89
2023/03/13 01:48:07;;;;;;;;;;;;;;;;;;4944468;29;19977;-89
2023/03/13 01:50:33;;;;;;;;;;;;;;;;;;4944400;29;19945;-89
2023/03/13 01:52:59;;;;;;;;;;;;;;;;;;4944332;29;19922;-89
2023/03/13 01:55:25;;;;;;;;;;;;;;;;;;4944497;28;20412;-90
2023/03/13 01:57:51;;;;;;;;;;;;;;;;;;4944424;29;19923;-89
2023/03/13 02:00:17;;;;;;;;;;;;;;;;;;4953385;28;20376;-89
2023/03/13 02:02:42;;;;;;;;;;;;;;;;;;4963474;28;19926;-89
2023/03/13 02:05:08;;;;;;;;;;;;;;;;;;4963465;28;20379;-89
2023/03/13 02:07:34;;;;;;;;;;;;;;;;;;4956804;28;19922;-89
2023/03/13 02:10:00;;;;;;;;;;;;;;;;;;4959823;29;19933;-89
2023/03/13 02:12:26;;;;;;;;;;;;;;;;;;4944199;29;19926;-89
2023/03/13 02:14:52;;;;;;;;;;;;;;;;;;4944279;29;19929;-89
2023/03/13 02:20:38;;;;;;;;;;;;;;;;;;4967558;28;19925;-89
2023/03/13 02:23:04;;;;;;;;;;;;;;;;;;4960211;28;20025;-89
2023/03/13 02:25:30;;;;;;;;;;;;;;;;;;4944167;29;19980;-89
2023/03/13 02:27:56;;;;;;;;;;;;;;;;;;4960049;29;20376;-88
2023/03/13 02:30:21;;;;;;;;;;;;;;;;;;4959828;28;19928;-88
2023/03/13 02:32:47;;;;;;;;;;;;;;;;;;4973510;28;20380;-88
2023/03/13 02:35:13;;;;;;;;;;;;;;;;;;4963516;28;20376;-88
2023/03/13 02:37:39;;;;;;;;;;;;;;;;;;4963487;28;19922;-89
2023/03/13 02:40:05;;;;;;;;;;;;;;;;;;4962835;28;19922;-88
2023/03/13 02:42:31;;;;;;;;;;;;;;;;;;4979375;28;19932;-88
2023/03/13 02:44:57;;;;;;;;;;;;;;;;;;4963096;28;20012;-88
2023/03/13 02:47:23;;;;;;;;;;;;;;;;;;4962995;28;19922;-88
2023/03/13 02:49:49;;;;;;;;;;;;;;;;;;4954136;28;20324;-88
2023/03/13 02:52:16;;;;;;;;;;;;;;;;;;4944231;29;19976;-88
2023/03/13 02:54:41;;;;;;;;;;;;;;;;;;4943878;29;19923;-89
2023/03/13 02:57:07;;;;;;;;;;;;;;;;;;4957397;28;19930;-88
2023/03/13 02:59:33;;;;;;;;;;;;;;;;;;4940436;29;19942;-89
2023/03/13 03:01:59;;;;;;;;;;;;;;;;;;4956600;29;19926;-88
2023/03/13 03:04:25;;;;;;;;;;;;;;;;;;4940897;29;19950;-89
2023/03/13 03:06:51;;;;;;;;;;;;;;;;;;4940687;29;20034;-89
2023/03/13 03:09:17;;;;;;;;;;;;;;;;;;4940175;29;19945;-89
2023/03/13 03:11:43;;;;;;;;;;;;;;;;;;4940776;29;19965;-89
2023/03/13 03:14:09;;;;;;;;;;;;;;;;;;4956673;29;19929;-89
2023/03/13 03:16:35;;;;;;;;;;;;;;;;;;4952273;28;19990;-89
2023/03/13 03:22:05;;;;;;;;;;;;;;;;;;4964075;28;19929;-89
2023/03/13 03:24:31;;;;;;;;;;;;;;;;;;4956855;29;19923;-89
2023/03/13 03:26:57;;;;;;;;;;;;;;;;;;4956399;29;19930;-89
2023/03/13 03:29:23;;;;;;;;;;;;;;;;;;4939858;29;19923;-89
2023/03/13 03:31:49;;;;;;;;;;;;;;;;;;4953933;28;20402;-89
2023/03/13 03:34:15;;;;;;;;;;;;;;;;;;4959558;28;20016;-89
2023/03/13 03:36:41;;;;;;;;;;;;;;;;;;4959494;28;19929;-89
2023/03/13 03:39:07;;;;;;;;;;;;;;;;;;4975155;28;19922;-89
2023/03/13 03:41:33;;;;;;;;;;;;;;;;;;4959260;28;19926;-89
2023/03/13 03:43:59;;;;;;;;;;;;;;;;;;4959448;28;19922;-89
2023/03/13 03:46:24;;;;;;;;;;;;;;;;;;4940802;28;20001;-89
2023/03/13 03:48:50;;;;;;;;;;;;;;;;;;4940231;29;20002;-89
2023/03/13 03:51:16;;;;;;;;;;;;;;;;;;4940036;29;19926;-90
2023/03/13 03:53:42;;;;;;;;;;;;;;;;;;4939946;29;19972;-90
2023/03/13 03:56:08;;;;;;;;;;;;;;;;;;4940228;29;19998;-89
2023/03/13 03:58:34;;;;;;;;;;;;;;;;;;4943774;28;19926;-89
2023/03/13 04:01:00;;;;;;;;;;;;;;;;;;4974722;28;19953;-90
2023/03/13 04:03:26;;;;;;;;;;;;;;;;;;4959034;28;20076;-89
2023/03/13 04:05:52;;;;;;;;;;;;;;;;;;4958973;28;19922;-90
2023/03/13 04:08:18;;;;;;;;;;;;;;;;;;4974882;28;19930;-89
2023/03/13 04:10:43;;;;;;;;;;;;;;;;;;4958428;28;19929;-89
2023/03/13 04:13:09;;;;;;;;;;;;;;;;;;4958957;28;19985;-89
2023/03/13 04:15:35;;;;;;;;;;;;;;;;;;4958736;28;19946;-89
2023/03/13 04:18:01;;;;;;;;;;;;;;;;;;4957041;28;19922;-89
2023/03/13 04:20:27;;;;;;;;;;;;;;;;;;4947444;28;19954;-89
2023/03/13 04:22:53;;;;;;;;;;;;;;;;;;4939470;29;19923;-90
2023/03/13 04:25:19;;;;;;;;;;;;;;;;;;4955446;29;19930;-89
2023/03/13 04:27:45;;;;;;;;;;;;;;;;;;4955786;29;20364;-89
2023/03/13 04:30:11;;;;;;;;;;;;;;;;;;4955413;29;19922;-90
2023/03/13 04:32:37;;;;;;;;;;;;;;;;;;4939540;29;19923;-89
2023/03/13 04:35:03;;;;;;;;;;;;;;;;;;4939688;29;20009;-89
2023/03/13 04:37:28;;;;;;;;;;;;;;;;;;4955224;29;19922;-89
2023/03/13 04:39:54;;;;;;;;;;;;;;;;;;4956119;28;19952;-90
2023/03/13 04:42:20;;;;;;;;;;;;;;;;;;4939189;29;19985;-90
2023/03/13 04:44:46;;;;;;;;;;;;;;;;;;4955358;29;20257;-89
2023/03/13 04:47:12;;;;;;;;;;;;;;;;;;4939342;29;19926;-89
2023/03/13 04:49:38;;;;;;;;;;;;;;;;;;4938843;29;19922;-88
2023/03/13 04:52:04;;;;;;;;;;;;;;;;;;4938920;29;19926;-89
2023/03/13 04:54:30;;;;;;;;;;;;;;;;;;4939160;29;19969;-89
2023/03/13 04:56:56;;;;;;;;;;;;;;;;;;4938840;29;19953;-89
2023/03/13 04:59:21;;;;;;;;;;;;;;;;;;4938585;29;20307;-89
2023/03/13 05:01:47;;;;;;;;;;;;;;;;;;4954102;29;19926;-89
2023/03/13 05:04:13;;;;;;;;;;;;;;;;;;4937492;29;19945;-89
2023/03/13 05:06:39;;;;;;;;;;;;;;;;;;4938418;29;19982;-90
2023/03/13 05:09:05;;;;;;;;;;;;;;;;;;4937846;29;20013;-90
2023/03/13 05:11:31;;;;;;;;;;;;;;;;;;4938070;29;19922;-90
2023/03/13 05:13:57;;;;;;;;;;;;;;;;;;4938074;29;19923;-89
2023/03/13 05:16:23;;;;;;;;;;;;;;;;;;4953845;28;19958;-88
2023/03/13 05:18:49;;;;;;;;;;;;;;;;;;4937898;29;19929;-89
2023/03/13 05:21:15;;;;;;;;;;;;;;;;;;4936771;29;19977;-89
2023/03/13 05:23:40;;;;;;;;;;;;;;;;;;4937723;29;19927;-89
2023/03/13 05:26:06;;;;;;;;;;;;;;;;;;4953645;29;19923;-89
2023/03/13 05:28:32;;;;;;;;;;;;;;;;;;4919442;29;19966;-89
2023/03/13 05:30:58;;;;;;;;;;;;;;;;;;4936577;29;20003;-90
2023/03/13 05:33:24;;;;;;;;;;;;;;;;;;4947202;28;20410;-90
2023/03/13 05:35:50;;;;;;;;;;;;;;;;;;4956827;28;19975;-89
2023/03/13 05:38:16;;;;;;;;;;;;;;;;;;4956838;28;19968;-89
2023/03/13 05:40:42;;;;;;;;;;;;;;;;;;4972323;28;19976;-89
2023/03/13 05:43:08;;;;;;;;;;;;;;;;;;4937740;29;20623;-90
2023/03/13 05:45:33;;;;;;;;;;;;;;;;;;4937670;29;20400;-90
2023/03/13 05:47:59;;;;;;;;;;;;;;;;;;4937707;29;19926;-89
2023/03/13 05:50:25;;;;;;;;;;;;;;;;;;4939884;28;20443;-91
2023/03/13 05:52:51;;;;;;;;;;;;;;;;;;4956953;28;19922;-90
2023/03/13 05:55:17;;;;;;;;;;;;;;;;;;4956891;28;19922;-90
2023/03/13 05:57:43;;;;;;;;;;;;;;;;;;4956979;28;19980;-90
2023/03/13 06:00:09;;;;;;;;;;;;;;;;;;4956467;28;20442;-90
2023/03/13 06:02:35;;;;;;;;;;;;;;;;;;4956405;28;20021;-89
2023/03/13 06:05:01;;;;;;;;;;;;;;;;;;4956584;28;19926;-89
2023/03/13 06:07:27;;;;;;;;;;;;;;;;;;4956805;28;19926;-89
2023/03/13 06:09:52;;;;;;;;;;;;;;;;;;4956499;28;20423;-91
2023/03/13 06:12:18;;;;;;;;;;;;;;;;;;4951597;28;19922;-90
2023/03/13 06:14:44;;;;;;;;;;;;;;;;;;4953612;29;19923;-90
2023/03/13 06:17:10;;;;;;;;;;;;;;;;;;4937550;29;19927;-90
2023/03/13 06:19:36;;;;;;;;;;;;;;;;;;4937310;29;20072;-90
2023/03/13 06:22:02;;;;;;;;;;;;;;;;;;4937563;29;19931;-90
2023/03/13 06:24:28;;;;;;;;;;;;;;;;;;4937503;29;19930;-90
2023/03/13 06:26:54;;;;;;;;;;;;;;;;;;4937421;29;19952;-89
2023/03/13 06:29:19;;;;;;;;;;;;;;;;;;4936906;29;19930;-90
2023/03/13 06:31:45;;;;;;;;;;;;;;;;;;4937694;29;19922;-89
2023/03/13 06:34:11;;;;;;;;;;;;;;;;;;4940885;29;19926;-89
2023/03/13 06:36:37;;;;;;;;;;;;;;;;;;4940966;29;19927;-90
2023/03/13 06:39:03;;;;;;;;;;;;;;;;;;4936818;29;20471;-90
2023/03/13 06:41:29;;;;;;;;;;;;;;;;;;4940727;29;19927;-90
2023/03/13 06:43:55;;;;;;;;;;;;;;;;;;4940805;29;19922;-90
2023/03/13 06:46:21;;;;;;;;;;;;;;;;;;4940671;29;19926;-90
2023/03/13 06:48:47;;;;;;;;;;;;;;;;;;4940569;29;19922;-91
2023/03/13 06:51:13;;;;;;;;;;;;;;;;;;4927851;29;19929;-90
2023/03/13 06:53:39;;;;;;;;;;;;;;;;;;4921584;29;20308;-90
2023/03/13 06:56:04;;;;;;;;;;;;;;;;;;4937455;29;19929;-90
2023/03/13 06:58:30;;;;;;;;;;;;;;;;;;4937339;29;19927;-90
2023/03/13 07:00:56;;;;;;;;;;;;;;;;;;4927664;29;19930;-89
2023/03/13 07:03:23;;;;;;;;;;;;;;;;;;4932476;29;19927;-90
2023/03/13 07:05:49;;;;;;;;;;;;;;;;;;4940741;29;19930;-90
2023/03/13 07:08:14;;;;;;;;;;;;;;;;;;4940742;29;19922;-90
2023/03/13 07:10:40;;;;;;;;;;;;;;;;;;4939962;29;19930;-90
2023/03/13 07:13:06;;;;;;;;;;;;;;;;;;4972275;28;20003;-90
2023/03/13 07:15:32;;;;;;;;;;;;;;;;;;4959506;28;19973;-90
2023/03/13 07:17:58;;;;;;;;;;;;;;;;;;4940226;28;19927;-90
2023/03/13 07:23:27;;;;;;;;;;;;;;;;;;4963842;28;20403;-90
2023/03/13 07:25:54;;;;;;;;;;;;;;;;;;4925812;29;19922;-90
2023/03/13 07:28:20;;;;;;;;;;;;;;;;;;4954588;29;19922;-89
2023/03/13 07:30:46;;;;;;;;;;;;;;;;;;4939510;29;19929;-89
2023/03/13 07:33:12;;;;;;;;;;;;;;;;;;4940076;29;20013;-90
2023/03/13 07:35:38;;;;;;;;;;;;;;;;;;4940008;29;19926;-91
2023/03/13 07:38:03;;;;;;;;;;;;;;;;;;4940017;29;19969;-91
2023/03/13 07:40:29;;;;;;;;;;;;;;;;;;4955696;29;19973;-89
2023/03/13 07:42:55;;;;;;;;;;;;;;;;;;4939460;29;19933;-92
2023/03/13 07:45:21;;;;;;;;;;;;;;;;;;4929258;29;19978;-91
2023/03/13 07:47:47;;;;;;;;;;;;;;;;;;4935752;28;20017;-91
2023/03/13 07:50:13;;;;;;;;;;;;;;;;;;4943110;29;19969;-90
2023/03/13 07:52:39;;;;;;;;;;;;;;;;;;4947322;29;19923;-92
2023/03/13 07:55:05;;;;;;;;;;;;;;;;;;4946963;28;20396;-90
2023/03/13 07:57:31;;;;;;;;;;;;;;;;;;4947273;28;19934;-91
2023/03/13 07:59:57;;;;;;;;;;;;;;;;;;4938943;29;19931;-91
2023/03/13 08:02:22;;;;;;;;;;;;;;;;;;4939100;29;19927;-91
2023/03/13 08:04:48;;;;;;;;;;;;;;;;;;4946955;28;19929;-91
2023/03/13 08:07:14;;;;;;;;;;;;;;;;;;4935337;28;20013;-91
2023/03/13 08:09:40;;;;;;;;;;;;;;;;;;4954560;28;19926;-91
2023/03/13 08:12:06;;;;;;;;;;;;;;;;;;4939091;29;19927;-91
2023/03/13 08:14:32;;;;;;;;;;;;;;;;;;4938881;29;20002;-91
2023/03/13 08:16:58;;;;;;;;;;;;;;;;;;4938562;29;19922;-91
2023/03/13 08:19:24;;;;;;;;;;;;;;;;;;4940730;28;20014;-90
2023/03/13 08:21:50;;;;;;;;;;;;;;;;;;4958024;28;19927;-90
2023/03/13 08:24:16;;;;;;;;;;;;;;;;;;4957943;28;19922;-91
2023/03/13 08:26:42;;;;;;;;;;;;;;;;;;4974536;28;19922;-91
2023/03/13 08:29:08;;;;;;;;;;;;;;;;;;4957929;28;19973;-91
2023/03/13 08:31:34;;;;;;;;;;;;;;;;;;4949630;28;19926;-91
2023/03/13 08:33:59;;;;;;;;;;;;;;;;;;4938982;29;19923;-91
2023/03/13 08:36:25;;;;;;;;;;;;;;;;;;4938895;29;19990;-91
2023/03/13 08:38:51;;;;;;;;;;;;;;;;;;4940311;28;19926;-90
2023/03/13 08:41:17;;;;;;;;;;;;;;;;;;4948213;28;19977;-92
2023/03/13 08:43:43;;;;;;;;;;;;;;;;;;4938958;29;19922;-91
2023/03/13 08:46:09;;;;;;;;;;;;;;;;;;4938695;29;19945;-91
2023/03/13 08:48:35;;;;;;;;;;;;;;;;;;4954442;29;19923;-92
2023/03/13 08:51:01;;;;;;;;;;;;;;;;;;4938546;29;20386;-91
2023/03/13 08:53:27;;;;;;;;;;;;;;;;;;4938512;29;20365;-91
2023/03/13 08:55:53;;;;;;;;;;;;;;;;;;4945866;29;19954;-91
2023/03/13 08:58:19;;;;;;;;;;;;;;;;;;4954514;29;19926;-91
2023/03/13 09:00:45;;;;;;;;;;;;;;;;;;4936240;29;19922;-91
2023/03/13 09:03:11;;;;;;;;;;;;;;;;;;4930845;29;20450;-92
2023/03/13 09:05:37;;;;;;;;;;;;;;;;;;4954628;29;19929;-92
2023/03/13 09:08:02;;;;;;;;;;;;;;;;;;4938277;29;20296;-90
2023/03/13 09:10:28;;;;;;;;;;;;;;;;;;4954838;28;19922;-90
2023/03/13 09:12:54;;;;;;;;;;;;;;;;;;4938166;29;19922;-89
2023/03/13 09:15:20;;;;;;;;;;;;;;;;;;4938228;29;20328;-91
2023/03/13 09:17:46;;;;;;;;;;;;;;;;;;4938179;29;19977;-88
2023/03/13 09:20:12;;;;;;;;;;;;;;;;;;4931466;29;20299;-88
2023/03/13 09:22:38;;;;;;;;;;;;;;;;;;4953011;29;19937;-93
2023/03/13 09:25:04;;;;;;;;;;;;;;;;;;4932784;29;20398;-87
2023/03/13 09:27:29;;;;;;;;;;;;;;;;;;4951087;29;19923;-89
2023/03/13 09:32:59;;;;;;;;;;;;;;;;;;4960291;28;19937;-90
2023/03/13 09:35:25;;;;;;;;;;;;;;;;;;4938100;29;19922;-89
2023/03/13 09:37:51;;;;;;;;;;;;;;;;;;4947931;29;20017;-90
2023/03/13 09:40:17;;;;;;;;;;;;;;;;;;4947695;29;19977;-91
2023/03/13 09:42:43;;;;;;;;;;;;;;;;;;4937934;29;19931;-89
2023/03/13 09:45:09;;;;;;;;;;;;;;;;;;4945829;28;19925;-87
2023/03/13 09:47:35;;;;;;;;;;;;;;;;;;4921744;28;19922;-87
2023/03/13 09:50:00;;;;;;;;;;;;;;;;;;4945827;29;19977;-87
2023/03/13 09:52:26;;;;;;;;;;;;;;;;;;4928116;29;19929;-88
2023/03/13 09:54:52;;;;;;;;;;;;;;;;;;4944944;29;19922;-87
2023/03/13 09:57:18;;;;;;;;;;;;;;;;;;4918380;29;20037;-89
2023/03/13 09:59:47;;;;;;;;;;;;;;;;;;4921716;29;20009;-91
2023/03/13 10:02:13;;;;;;;;;;;;;;;;;;4937313;28;19934;-89
2023/03/13 10:04:39;;;;;;;;;;;;;;;;;;4934082;28;20395;-90
2023/03/13 10:07:05;;;;;;;;;;;;;;;;;;4944740;29;19923;-90
2023/03/13 10:09:31;;;;;;;;;;;;;;;;;;4939632;29;19949;-94
2023/03/13 10:11:59;;;;;;;;;;;;;;;;;;4943037;29;20028;-91
2023/03/13 10:14:24;;;;;;;;;;;;;;;;;;4936077;29;20339;-91
2023/03/13 10:16:51;;;;;;;;;;;;;;;;;;4942055;29;19934;-94
2023/03/13 10:19:17;;;;;;;;;;;;;;;;;;4942699;28;19930;-88
2023/03/13 10:21:43;;;;;;;;;;;;;;;;;;4956608;29;19927;-88
2023/03/13 10:24:09;;;;;;;;;;;;;;;;;;4941365;29;19928;-90
2023/03/13 10:26:35;;;;;;;;;;;;;;;;;;4957994;29;19927;-92
2023/03/13 10:29:01;;;;;;;;;;;;;;;;;;4947868;29;19930;-91
2023/03/13 10:31:27;;;;;;;;;;;;;;;;;;4940851;29;19948;-92
2023/03/13 10:33:53;;;;;;;;;;;;;;;;;;4940835;29;19923;-89
2023/03/13 10:36:19;;;;;;;;;;;;;;;;;;4936918;29;19984;-90
2023/03/13 10:38:45;;;;;;;;;;;;;;;;;;4926634;29;20296;-89
2023/03/13 10:41:11;;;;;;;;;;;;;;;;;;4921655;29;19938;-92
2023/03/13 10:43:36;;;;;;;;;;;;;;;;;;4921729;29;19970;-89
2023/03/13 10:46:02;;;;;;;;;;;;;;;;;;4936936;29;19923;-88
2023/03/13 10:48:28;;;;;;;;;;;;;;;;;;4955830;29;19929;-91
2023/03/13 10:50:57;;;;;;;;;;;;;;;;;;4926570;29;19923;-91
2023/03/13 10:53:23;;;;;;;;;;;;;;;;;;4958543;28;19926;-90
2023/03/13 10:55:49;;;;;;;;;;;;;;;;;;4959608;28;20312;-88
2023/03/13 10:58:15;;;;;;;;;;;;;;;;;;4942467;28;20395;-90
2023/03/13 11:00:44;;;;;;;;;;;;;;;;;;4925598;29;20352;-89
2023/03/13 11:03:10;;;;;;;;;;;;;;;;;;4938781;29;19926;-89
2023/03/13 11:05:36;;;;;;;;;;;;;;;;;;4940770;29;19945;-92
2023/03/13 11:08:02;;;;;;;;;;;;;;;;;;4940353;29;19926;-89
2023/03/13 11:10:36;;;;;;;;;;;;;;;;;;4939445;29;19923;-89
2023/03/13 11:13:02;;;;;;;;;;;;;;;;;;4955810;28;20399;-88
2023/03/13 11:15:28;;;;;;;;;;;;;;;;;;4959416;28;19929;-88
2023/03/13 11:17:54;;;;;;;;;;;;;;;;;;4958421;28;19922;-88
2023/03/13 11:20:20;;;;;;;;;;;;;;;;;;4945807;28;20369;-93
2023/03/13 11:22:46;;;;;;;;;;;;;;;;;;4939234;28;20446;-94
2023/03/13 11:25:12;;;;;;;;;;;;;;;;;;4942422;28;19930;-95
2023/03/13 11:27:38;;;;;;;;;;;;;;;;;;4933924;29;19934;-93
2023/03/13 11:30:03;;;;;;;;;;;;;;;;;;4955746;28;19948;-91
2023/03/13 11:32:29;;;;;;;;;;;;;;;;;;4960598;28;19929;-94
2023/03/13 11:34:55;;;;;;;;;;;;;;;;;;4960069;28;19930;-96
2023/03/13 11:37:21;;;;;;;;;;;;;;;;;;4933868;28;19931;-94
2023/03/13 11:39:47;;;;;;;;;;;;;;;;;;4936939;29;19926;-96
2023/03/13 11:42:13;;;;;;;;;;;;;;;;;;4958517;28;19973;-96
2023/03/13 11:44:39;;;;;;;;;;;;;;;;;;4941594;28;19922;-95
2023/03/13 11:47:05;;;;;;;;;;;;;;;;;;4940662;29;20043;-96
2023/03/13 11:49:31;;;;;;;;;;;;;;;;;;4943040;29;19929;-96
2023/03/13 11:51:58;;;;;;;;;;;;;;;;;;4970972;28;19945;-96
2023/03/13 11:54:24;;;;;;;;;;;;;;;;;;4945497;29;19922;-96
2023/03/13 11:56:50;;;;;;;;;;;;;;;;;;4951071;28;19929;-96
2023/03/13 11:59:17;;;;;;;;;;;;;;;;;;4956688;28;19923;-96
2023/03/13 12:01:43;;;;;;;;;;;;;;;;;;4955011;28;19930;-95
2023/03/13 12:04:09;;;;;;;;;;;;;;;;;;4941266;29;19928;-96
2023/03/13 12:06:35;;;;;;;;;;;;;;;;;;4945902;28;20016;-94
2023/03/13 12:09:02;;;;;;;;;;;;;;;;;;4951741;29;19942;-92
2023/03/13 12:11:31;;;;;;;;;;;;;;;;;;4958616;28;20056;-90
2023/03/13 12:13:56;;;;;;;;;;;;;;;;;;4947445;28;19969;-95
2023/03/13 12:16:32;;;;;;;;;;;;;;;;;;4938807;28;20401;-94
2023/03/13 12:18:58;;;;;;;;;;;;;;;;;;4942256;29;19922;-91
2023/03/13 12:37:36;;;;;;;;;;;;;;;;;;4969593;28;19934;-96
2023/03/13 12:40:06;;;;;;;;;;;;;;;;;;4949373;29;19930;-96
2023/03/13 12:42:33;;;;;;;;;;;;;;;;;;4950963;29;19910;-95
2023/03/13 12:44:59;;;;;;;;;;;;;;;;;;4939874;29;19949;-92
2023/03/13 12:47:44;;;;;;;;;;;;;;;;;;5747222;23;19914;-92
2023/03/13 12:50:27;;;;;;;;;;;;;;;;;;4962705;29;19978;-95
2023/03/13 12:52:53;;;;;;;;;;;;;;;;;;4963211;29;19934;-96
2023/03/13 12:55:19;;;;;;;;;;;;;;;;;;4939545;29;19926;-95
2023/03/13 12:57:45;;;;;;;;;;;;;;;;;;4934168;29;19945;-95
2023/03/13 13:02:47;;;;;;;;;;;;;;;;;;5014141;23;19973;-95
2023/03/13 13:05:13;;;;;;;;;;;;;;;;;;4959183;28;19926;-93
2023/03/13 13:07:39;;;;;;;;;;;;;;;;;;4978268;28;19928;-94
2023/03/13 13:10:05;;;;;;;;;;;;;;;;;;4971206;28;19949;-93
2023/03/13 13:12:31;;;;;;;;;;;;;;;;;;4971519;28;19922;-94
2023/03/13 13:14:57;;;;;;;;;;;;;;;;;;4984637;28;19960;-92
2023/03/13 13:22:52;;;;;;;;;;;;;;;;;;4959629;28;19921;-92
2023/03/13 13:25:25;;;;;;;;;;;;;;;;;;4963784;29;19937;-93
2023/03/13 13:27:54;;;;;;;;;;;;;;;;;;4942992;29;22427;-96
2023/03/13 13:30:20;;;;;;;;;;;;;;;;;;4949080;29;19970;-96
2023/03/13 13:32:46;;;;;;;;;;;;;;;;;;4944770;29;19923;-96
2023/03/13 13:35:12;;;;;;;;;;;;;;;;;;4949282;29;19907;-96
2023/03/13 13:37:48;;;;;;;;;;;;;;;;;;4954607;29;19926;-94
2023/03/13 13:50:55;;;;;;;;;;;;;;;;;;4953318;29;19926;-92
2023/03/13 13:53:21;;;;;;;;;;;;;;;;;;4938681;29;19922;-91
2023/03/13 13:55:47;;;;;;;;;;;;;;;;;;4938649;29;19922;-94
2023/03/13 13:58:13;;;;;;;;;;;;;;;;;;4940765;29;19933;-95
2023/03/13 14:00:54;;;;;;;;;;;;;;;;;;4953638;29;19934;-95
2023/03/13 14:03:20;;;;;;;;;;;;;;;;;;4943190;29;19926;-95
2023/03/13 14:05:46;;;;;;;;;;;;;;;;;;4942081;29;19923;-96
2023/03/13 14:08:12;;;;;;;;;;;;;;;;;;4941546;29;19929;-94
2023/03/13 14:10:38;;;;;;;;;;;;;;;;;;4943048;29;19927;-93
2023/03/13 14:13:04;;;;;;;;;;;;;;;;;;4932636;29;19994;-95
2023/03/13 14:15:32;;;;;;;;;;;;;;;;;;4947514;28;19964;-91
2023/03/13 14:18:01;;;;;;;;;;;;;;;;;;4937129;29;19923;-93
2023/03/13 14:20:27;;;;;;;;;;;;;;;;;;4937842;29;20365;-93
2023/03/13 14:22:53;;;;;;;;;;;;;;;;;;4948715;29;19985;-94
2023/03/13 14:25:22;;;;;;;;;;;;;;;;;;4943709;29;19922;-92
2023/03/13 14:27:48;;;;;;;;;;;;;;;;;;4943257;28;20356;-93
2023/03/13 14:30:13;;;;;;;;;;;;;;;;;;4949630;28;19977;-92
2023/03/13 14:32:39;;;;;;;;;;;;;;;;;;4933800;29;20340;-93
2023/03/13 14:35:05;;;;;;;;;;;;;;;;;;4932767;29;20014;-92
2023/03/13 14:37:31;;;;;;;;;;;;;;;;;;4935434;28;19969;-91
2023/03/13 14:39:57;;;;;;;;;;;;;;;;;;4960911;28;19964;-91
2023/03/13 14:42:23;;;;;;;;;;;;;;;;;;4937047;28;19974;-91
2023/03/13 14:44:50;;;;;;;;;;;;;;;;;;4939268;29;19922;-91
2023/03/13 14:50:20;;;;;;;;;;;;;;;;;;4958284;28;20381;-91
2023/03/13 14:52:47;;;;;;;;;;;;;;;;;;4937247;29;19926;-91
2023/03/13 14:55:13;;;;;;;;;;;;;;;;;;4942854;28;19973;-90
2023/03/13 14:57:39;;;;;;;;;;;;;;;;;;4956290;28;20296;-90
2023/03/13 15:00:05;;;;;;;;;;;;;;;;;;4955404;29;19930;-90
2023/03/13 15:02:31;;;;;;;;;;;;;;;;;;4948063;28;19936;-91
2023/03/13 15:05:00;;;;;;;;;;;;;;;;;;4940241;29;19952;-91
2023/03/13 15:07:26;;;;;;;;;;;;;;;;;;4958631;28;19929;-91
2023/03/13 15:12:46;;;;;;;;;;;;;;;;;;4947650;28;20297;-91
2023/03/13 15:15:12;;;;;;;;;;;;;;;;;;4939902;29;19929;-90
2023/03/13 15:17:38;;;;;;;;;;;;;;;;;;4940736;28;20444;-90
2023/03/13 15:20:08;;;;;;;;;;;;;;;;;;4959296;28;19982;-90
2023/03/13 15:22:34;;;;;;;;;;;;;;;;;;4952024;28;20388;-91
2023/03/13 15:25:00;;;;;;;;;;;;;;;;;;4940025;29;19923;-90
2023/03/13 15:27:27;;;;;;;;;;;;;;;;;;4944000;28;20013;-90
2023/03/13 15:29:53;;;;;;;;;;;;;;;;;;4942420;28;19926;-90
2023/03/13 15:32:19;;;;;;;;;;;;;;;;;;4955889;29;20407;-90
2023/03/13 15:37:26;;;;;;;;;;;;;;;;;;4959977;28;19933;-91
2023/03/13 15:40:08;;;;;;;;;;;;;;;;;;4946163;29;19922;-90
2023/03/13 15:42:34;;;;;;;;;;;;;;;;;;4941599;28;20025;-90
2023/03/13 15:45:07;;;;;;;;;;;;;;;;;;4962597;28;19973;-91
2023/03/13 15:47:35;;;;;;;;;;;;;;;;;;4943116;28;19929;-90
2023/03/13 15:50:01;;;;;;;;;;;;;;;;;;4944143;28;20013;-90
2023/03/13 15:52:27;;;;;;;;;;;;;;;;;;4938862;28;19976;-90
2023/03/13 15:54:53;;;;;;;;;;;;;;;;;;4938146;29;19927;-90
2023/03/13 15:57:21;;;;;;;;;;;;;;;;;;4954378;28;19922;-90
2023/03/13 15:59:46;;;;;;;;;;;;;;;;;;4947376;29;19929;-91
2023/03/13 16:02:28;;;;;;;;;;;;;;;;;;4938994;29;19926;-89
2023/03/13 16:04:54;;;;;;;;;;;;;;;;;;4941970;28;19922;-90
2023/03/13 16:07:20;;;;;;;;;;;;;;;;;;4948411;28;19922;-90
2023/03/13 16:09:46;;;;;;;;;;;;;;;;;;4943520;28;19929;-90
2023/03/13 16:12:12;;;;;;;;;;;;;;;;;;4941751;28;19922;-91
2023/03/13 16:14:46;;;;;;;;;;;;;;;;;;4942590;28;19922;-90
2023/03/13 16:17:12;;;;;;;;;;;;;;;;;;4949617;28;20017;-90
2023/03/13 16:19:38;;;;;;;;;;;;;;;;;;4950672;28;19922;-90
2023/03/13 16:22:04;;;;;;;;;;;;;;;;;;4942133;28;20142;-90
2023/03/13 16:24:30;;;;;;;;;;;;;;;;;;4946379;29;19929;-90
2023/03/13 16:26:56;;;;;;;;;;;;;;;;;;4952721;28;20414;-90
2023/03/13 16:29:22;;;;;;;;;;;;;;;;;;4947300;28;19926;-90
2023/03/13 16:31:49;;;;;;;;;;;;;;;;;;4954650;29;19928;-90
2023/03/13 16:34:15;;;;;;;;;;;;;;;;;;4941701;29;20005;-90
2023/03/13 16:36:41;;;;;;;;;;;;;;;;;;4938716;29;20013;-90
2023/03/13 16:39:10;;;;;;;;;;;;;;;;;;4969653;28;20384;-90
2023/03/13 16:41:36;;;;;;;;;;;;;;;;;;4953788;28;19973;-90
2023/03/13 16:44:01;;;;;;;;;;;;;;;;;;4969847;28;19961;-91
2023/03/13 16:46:27;;;;;;;;;;;;;;;;;;4954971;28;19933;-91
2023/03/13 16:48:55;;;;;;;;;;;;;;;;;;4938091;29;19923;-90
2023/03/13 16:51:21;;;;;;;;;;;;;;;;;;4945704;29;19926;-91
2023/03/13 16:53:47;;;;;;;;;;;;;;;;;;4964303;28;20281;-90
2023/03/13 16:56:13;;;;;;;;;;;;;;;;;;4929888;29;19923;-90
2023/03/13 16:58:39;;;;;;;;;;;;;;;;;;4941242;29;19973;-90
2023/03/13 17:01:05;;;;;;;;;;;;;;;;;;4937233;29;20396;-90
2023/03/13 17:03:31;;;;;;;;;;;;;;;;;;4954096;29;19922;-90
2023/03/13 17:05:57;;;;;;;;;;;;;;;;;;4938256;29;19949;-89
2023/03/13 17:08:29;;;;;;;;;;;;;;;;;;4940933;29;19922;-89
2023/03/13 17:10:55;;;;;;;;;;;;;;;;;;4937499;29;19926;-89
2023/03/13 17:13:22;;;;;;;;;;;;;;;;;;4939624;28;19946;-89
2023/03/13 17:15:48;;;;;;;;;;;;;;;;;;4955743;28;19922;-89
2023/03/13 17:18:14;;;;;;;;;;;;;;;;;;4956523;28;19926;-89
2023/03/13 17:20:40;;;;;;;;;;;;;;;;;;4946407;28;19923;-89
2023/03/13 17:23:08;;;;;;;;;;;;;;;;;;4952022;28;19930;-89
2023/03/13 17:25:34;;;;;;;;;;;;;;;;;;4938985;28;19973;-89
2023/03/13 17:28:00;;;;;;;;;;;;;;;;;;4942064;28;19922;-89
2023/03/13 17:30:31;;;;;;;;;;;;;;;;;;4946178;28;19922;-90
2023/03/13 17:32:58;;;;;;;;;;;;;;;;;;4937833;29;19926;-89
2023/03/13 17:35:24;;;;;;;;;;;;;;;;;;4939047;28;19997;-89
2023/03/13 17:37:50;;;;;;;;;;;;;;;;;;4942878;28;20025;-89
2023/03/13 17:40:31;;;;;;;;;;;;;;;;;;4941419;28;19922;-89
2023/03/13 17:42:57;;;;;;;;;;;;;;;;;;4943985;28;19926;-89